KARV

Lakeland / Noble F Lee Memorial Field Airport

Minocqua-Woodruff, Wisconsin, USA
METAR KARV 190655Z AUTO 22003KT 10SM CLR M04/M05 A2968 RMK AO2 T10401055
Observed Flight Rules
Jan-19 @ 06:55 UTC (19 minutes ago) Visual Flight Rules
Wind Visibility Clouds
220° at 3 knots 10 miles
  • Clear skies
Temperatures Readings
Current -4°C / 25°F
Dewpoint -6°C / 21°F
Humidity 86%
Altimeter 29.68" Hg
Pressure 1005 hPa
Elevation 496
METAR KARV 190655Z AUTO 22003KT 10SM CLR M04/M05 A2968 RMK AO2 T10401055
Observed Flight Rules
Jan-19 @ 06:55 UTC
(19 minutes ago)
VFR
Wind Visibility
220° at 3 knots 10 miles
Clouds
  • Clear skies
Temperature Dewpoint
-4°C / 25°F -6°C / 21°F
Humidity Altimeter Pressure
86% 29.68" Hg 1005 hPa